Time;durP1;ratioP1;P1;durP2;ratioP2;P2;SDS_P1;SDS_P2;PMS_P1;PMS_P2;Temp;Humidity;BMP_temperature;BMP_pressure;BME280_temperature;BME280_humidity;BME280_pressure;Samples;Min_cycle;Max_cycle;Signal;HPM_P1;HPM_P2
2023/10/30 00:02:06;;;;;;;32.60;31.20;;;;;;;-141.02;100.00;41031.84;5094374;28;20765;-63
2023/10/30 00:04:34;;;;;;;33.35;31.85;;;;;;;-141.02;100.00;40970.47;5094480;28;20747;-63
2023/10/30 00:07:01;;;;;;;31.27;29.98;;;;;;;-141.02;100.00;40912.91;5094688;28;20194;-63
2023/10/30 00:09:29;;;;;;;32.08;30.67;;;;;;;-141.02;100.00;40909.06;5094281;28;20732;-63
2023/10/30 00:11:56;;;;;;;32.10;30.70;;;;;;;-141.02;100.00;40893.72;5094640;28;20248;-63
2023/10/30 00:14:23;;;;;;;30.95;29.60;;;;;;;-141.02;100.00;40909.06;5094235;28;20200;-63
2023/10/30 00:16:50;;;;;;;32.55;31.05;;;;;;;-141.02;100.00;40922.50;5094497;28;20284;-63
2023/10/30 00:19:17;;;;;;;31.58;30.17;;;;;;;-141.02;100.00;40928.25;5094006;28;20222;-63
2023/10/30 00:21:44;;;;;;;31.60;30.20;;;;;;;-141.02;100.00;40958.94;5094087;28;20288;-63
2023/10/30 00:24:11;;;;;;;32.47;31.00;;;;;;;-141.02;100.00;40951.28;5094349;28;20197;-63
2023/10/30 00:26:39;;;;;;;31.75;30.35;;;;;;;-141.02;100.00;40955.09;5094331;28;20218;-63
2023/10/30 00:29:06;;;;;;;32.80;31.30;;;;;;;-141.02;100.00;40962.78;5094292;28;20737;-63
2023/10/30 00:31:34;;;;;;;33.85;32.35;;;;;;;-141.02;100.00;40943.59;5093845;28;20687;-63
2023/10/30 00:34:01;;;;;;;34.20;32.60;;;;;;;-141.02;100.00;40960.88;5094176;28;20208;-63
2023/10/30 00:36:28;;;;;;;31.70;30.20;;;;;;;-141.02;100.00;40935.91;5093799;28;20668;-63
2023/10/30 00:38:54;;;;;;;33.60;32.00;;;;;;;-141.02;100.00;40983.88;5093752;28;20194;-63
2023/10/30 00:41:21;;;;;;;34.05;32.45;;;;;;;-141.02;100.00;40985.81;5094083;28;20259;-63
2023/10/30 00:43:50;;;;;;;33.45;31.95;;;;;;;-141.02;100.00;40966.63;5093824;28;20226;-64
2023/10/30 00:46:17;;;;;;;35.60;33.90;;;;;;;-141.02;100.00;40943.59;5093604;28;20289;-63
2023/10/30 00:48:44;;;;;;;34.70;33.10;;;;;;;-141.02;100.00;40958.94;5093569;28;20240;-64
2023/10/30 00:51:11;;;;;;;33.03;31.50;;;;;;;-141.02;100.00;40928.25;5093507;28;20198;-63
2023/10/30 00:53:38;;;;;;;34.85;33.20;;;;;;;-141.02;100.00;40901.38;5093508;28;20675;-63
2023/10/30 00:56:05;;;;;;;29.67;28.38;;;;;;;-141.02;100.00;40874.53;5093677;28;20272;-63
2023/10/30 00:58:33;;;;;;;35.38;33.67;;;;;;;-141.02;100.00;40895.63;5093654;28;20225;-63
2023/10/30 01:01:02;;;;;;;34.17;32.58;;;;;;;-141.02;100.00;40855.34;5093278;28;20198;-63
2023/10/30 01:03:28;;;;;;;30.50;29.20;;;;;;;-141.02;100.00;40799.69;5093542;28;20316;-63
2023/10/30 01:05:59;;;;;;;30.58;29.27;;;;;;;-141.02;100.00;40763.25;5093182;28;20281;-63
2023/10/30 01:08:27;;;;;;;30.55;29.25;;;;;;;-141.02;100.00;40732.56;5093496;28;20331;-63
2023/10/30 01:10:55;;;;;;;30.02;28.73;;;;;;;-141.02;100.00;40694.19;5093153;28;20227;-63
2023/10/30 01:13:23;;;;;;;31.92;30.52;;;;;;;-141.02;100.00;40675.00;5093103;28;20237;-63
2023/10/30 01:15:52;;;;;;;30.13;28.83;;;;;;;-141.02;100.00;40665.41;5093009;28;20651;-63
2023/10/30 01:18:21;;;;;;;29.67;28.48;;;;;;;-141.02;100.00;40582.91;5092790;28;20287;-63
2023/10/30 01:20:48;;;;;;;28.55;27.35;;;;;;;-141.02;100.00;40628.94;5092978;28;20751;-63
2023/10/30 01:23:15;;;;;;;29.50;28.23;;;;;;;-141.02;100.00;40609.75;5092807;28;20318;-63
2023/10/30 01:25:42;;;;;;;31.17;29.88;;;;;;;-141.02;100.00;40584.81;5092848;28;20255;-63
2023/10/30 01:28:09;;;;;;;29.15;27.95;;;;;;;-141.02;100.00;40552.22;5093566;28;20251;-63
2023/10/30 01:30:36;;;;;;;26.55;25.55;;;;;;;-141.02;100.00;40513.84;5092715;28;20576;-63
2023/10/30 01:33:03;;;;;;;26.58;25.48;;;;;;;-141.02;100.00;40437.09;5093111;28;20225;-63
2023/10/30 01:35:41;;;;;;;27.10;26.00;;;;;;;-141.02;100.00;40402.56;5092698;28;20284;-63
2023/10/30 01:38:07;;;;;;;27.00;25.90;;;;;;;-141.02;100.00;40343.09;5092676;28;20194;-63
2023/10/30 01:40:35;;;;;;;25.98;24.98;;;;;;;-141.02;100.00;40383.38;5092939;28;20254;-63
2023/10/30 01:43:08;;;;;;;26.30;25.30;;;;;;;-141.02;100.00;40364.22;5092819;28;20629;-63
2023/10/30 01:45:36;;;;;;;25.50;24.50;;;;;;;-141.02;100.00;40341.19;5092591;28;20197;-63
2023/10/30 01:48:03;;;;;;;25.85;24.85;;;;;;;-141.02;100.00;40333.50;5092393;28;20229;-63
2023/10/30 01:50:31;;;;;;;27.40;26.30;;;;;;;-141.02;100.00;40371.88;5092614;28;20221;-63
2023/10/30 01:53:00;;;;;;;29.17;27.98;;;;;;;-141.02;100.00;40314.34;5092363;28;20986;-63
2023/10/30 01:55:27;;;;;;;26.07;25.07;;;;;;;-141.02;100.00;40275.97;5092758;28;20617;-63
2023/10/30 01:57:54;;;;;;;25.90;24.90;;;;;;;-141.02;100.00;40206.91;5092676;28;20277;-63
2023/10/30 02:00:21;;;;;;;17.60;17.00;;;;;;;-141.02;100.00;40205.00;5092585;28;20201;-63
2023/10/30 02:02:49;;;;;;;25.67;24.67;;;;;;;-141.02;100.00;40168.53;5092579;28;20256;-63
2023/10/30 02:05:15;;;;;;;26.40;25.33;;;;;;;-141.02;100.00;40153.19;5092289;28;20193;-63
2023/10/30 02:07:43;;;;;;;28.65;27.55;;;;;;;-141.02;100.00;40068.78;5092505;28;20208;-63
2023/10/30 02:10:12;;;;;;;24.20;23.30;;;;;;;-141.02;100.00;39992.06;5092168;28;20284;-63
2023/10/30 02:12:42;;;;;;;21.55;20.75;;;;;;;-141.02;100.00;39834.78;5092188;28;20686;-63
2023/10/30 02:15:09;;;;;;;22.60;21.80;;;;;;;-141.02;100.00;39721.63;5092449;28;20578;-63
2023/10/30 02:17:36;;;;;;;23.60;22.70;;;;;;;-141.02;100.00;39654.50;5091958;28;20194;-63
2023/10/30 02:20:04;;;;;;;24.37;23.47;;;;;;;-141.02;100.00;39573.94;5092119;28;20592;-62
2023/10/30 02:22:31;;;;;;;25.60;24.60;;;;;;;-141.02;100.00;39501.06;5092229;28;20230;-63
2023/10/30 02:24:58;;;;;;;24.00;23.10;;;;;;;-141.02;100.00;39432.03;5092108;28;20190;-63
2023/10/30 02:27:27;;;;;;;22.53;21.73;;;;;;;-141.02;100.00;39393.66;5092010;28;20198;-63
2023/10/30 02:29:54;;;;;;;22.03;21.23;;;;;;;-141.02;100.00;39403.25;5092333;28;20229;-63
2023/10/30 02:32:21;;;;;;;22.45;21.65;;;;;;;-141.02;100.00;39295.88;5091985;28;20281;-63
2023/10/30 02:34:48;;;;;;;23.75;22.85;;;;;;;-141.02;100.00;39270.94;5092267;28;20670;-64
2023/10/30 02:37:15;;;;;;;21.47;20.67;;;;;;;-141.02;100.00;39278.59;5092199;28;20281;-63
2023/10/30 02:39:42;;;;;;;21.07;20.37;;;;;;;-141.02;100.00;39286.28;5091836;28;20193;-63
2023/10/30 02:42:09;;;;;;;22.03;21.23;;;;;;;-141.02;100.00;39290.13;5092274;28;20233;-62
2023/10/30 02:44:37;;;;;;;24.10;23.20;;;;;;;-141.02;100.00;39274.78;5092078;28;20234;-63
2023/10/30 02:47:04;;;;;;;22.83;22.02;;;;;;;-141.02;100.00;39309.28;5092119;28;20201;-63
2023/10/30 02:49:31;;;;;;;22.30;21.50;;;;;;;-141.02;100.00;39324.63;5091805;28;20635;-62
2023/10/30 02:51:58;;;;;;;22.40;21.60;;;;;;;-141.02;100.00;39324.63;5092064;28;20198;-63
2023/10/30 02:54:25;;;;;;;23.58;22.67;;;;;;;-141.02;100.00;39315.03;5092095;28;20605;-63
2023/10/30 02:56:52;;;;;;;23.20;22.30;;;;;;;-141.02;100.00;39269.00;5091784;28;20387;-63
2023/10/30 02:59:19;;;;;;;21.45;20.65;;;;;;;-141.02;100.00;39269.00;5091699;28;20285;-63
2023/10/30 03:01:48;;;;;;;22.45;21.65;;;;;;;-141.02;100.00;39303.53;5094176;28;20233;-63
2023/10/30 03:04:16;;;;;;;25.25;24.25;;;;;;;-141.02;100.00;39299.69;5095569;28;20261;-62
2023/10/30 03:06:43;;;;;;;22.60;21.80;;;;;;;-141.02;100.00;39320.78;5095894;28;20219;-62
2023/10/30 03:09:10;;;;;;;22.48;21.67;;;;;;;-141.02;100.00;39299.69;5095431;28;20678;-63
2023/10/30 03:11:37;;;;;;;22.27;21.48;;;;;;;-141.02;100.00;39339.97;5095500;28;20655;-62
2023/10/30 03:14:04;;;;;;;22.48;21.67;;;;;;;-141.02;100.00;39351.47;5095738;28;20198;-62
2023/10/30 03:16:31;;;;;;;23.80;22.90;;;;;;;-141.02;100.00;39351.47;5095693;28;20261;-62
2023/10/30 03:19:00;;;;;;;22.88;22.08;;;;;;;-141.02;100.00;39409.00;5095232;28;20288;-63
2023/10/30 03:21:27;;;;;;;22.60;21.80;;;;;;;-141.02;100.00;39433.94;5095273;28;20281;-62
2023/10/30 03:23:54;;;;;;;25.90;24.90;;;;;;;-141.02;100.00;39464.63;5095466;28;20234;-63
2023/10/30 03:26:21;;;;;;;25.52;24.52;;;;;;;-141.02;100.00;39447.38;5095495;28;20208;-62
2023/10/30 03:28:47;;;;;;;12.10;11.70;;;;;;;-141.02;100.00;39439.69;5095429;28;20233;-62
2023/10/30 03:31:14;;;;;;;12.63;12.23;;;;;;;-141.02;100.00;39462.72;5095421;28;20194;-62
2023/10/30 03:33:41;;;;;;;13.00;12.60;;;;;;;-141.02;100.00;39432.03;5095377;28;20617;-63
2023/10/30 03:36:10;;;;;;;12.40;12.00;;;;;;;-141.02;100.00;39412.84;5095141;28;20642;-62
2023/10/30 03:38:37;;;;;;;12.60;12.20;;;;;;;-141.02;100.00;39374.50;5095285;28;20198;-62
2023/10/30 03:41:04;;;;;;;12.02;11.63;;;;;;;-141.02;100.00;39343.81;5094951;28;20730;-62
2023/10/30 03:43:31;;;;;;;11.75;11.45;;;;;;;-141.02;100.00;39334.22;5095061;28;20255;-62
2023/10/30 03:45:58;;;;;;;11.60;11.30;;;;;;;-141.02;100.00;39332.31;5094821;28;20248;-63
2023/10/30 03:48:25;;;;;;;11.63;11.32;;;;;;;-141.02;100.00;39378.31;5095134;28;20208;-62
2023/10/30 03:50:52;;;;;;;10.95;10.65;;;;;;;-141.02;100.00;39393.66;5095016;28;20233;-63
2023/10/30 03:53:20;;;;;;;12.20;11.80;;;;;;;-141.02;100.00;39395.59;5095001;28;20285;-62
2023/10/30 03:55:47;;;;;;;11.38;11.07;;;;;;;-141.02;100.00;39332.31;5094609;28;20198;-62
2023/10/30 03:58:14;;;;;;;11.30;11.00;;;;;;;-141.02;100.00;39443.53;5094855;28;20225;-63
2023/10/30 04:00:41;;;;;;;11.03;10.73;;;;;;;-141.02;100.00;39297.78;5094883;28;20197;-63
2023/10/30 04:03:09;;;;;;;11.70;11.40;;;;;;;-141.02;100.00;39286.28;5094389;28;20196;-62
2023/10/30 04:05:38;;;;;;;11.60;11.30;;;;;;;-141.02;100.00;39278.59;5094500;28;20651;-62
2023/10/30 04:08:05;;;;;;;11.80;11.50;;;;;;;-141.02;100.00;39263.25;5094421;28;20797;-63
2023/10/30 04:10:34;;;;;;;11.77;11.47;;;;;;;-141.02;100.00;39261.34;5094651;28;20277;-62
2023/10/30 04:13:01;;;;;;;11.40;11.10;;;;;;;-141.02;100.00;39205.72;5093927;28;20233;-63
2023/10/30 04:15:28;;;;;;;11.53;11.23;;;;;;;-141.02;100.00;39232.59;5094269;28;20683;-63
2023/10/30 04:17:56;;;;;;;11.53;11.23;;;;;;;-141.02;100.00;39199.97;5094049;28;20268;-62
2023/10/30 04:20:23;;;;;;;11.98;11.57;;;;;;;-141.02;100.00;39198.06;5094430;28;20274;-62
2023/10/30 04:22:50;;;;;;;12.17;11.77;;;;;;;-141.02;100.00;39178.88;5094194;28;20236;-62
2023/10/30 04:25:19;;;;;;;10.73;10.43;;;;;;;-141.02;100.00;39155.88;5093996;28;20229;-63
2023/10/30 04:27:47;;;;;;;11.33;11.03;;;;;;;-141.02;100.00;39109.84;5094068;28;20194;-62
2023/10/30 04:30:14;;;;;;;11.10;10.80;;;;;;;-141.02;100.00;39075.34;5093974;28;20655;-63
2023/10/30 04:32:41;;;;;;;10.70;10.40;;;;;;;-141.02;100.00;39040.81;5094095;28;20672;-62
2023/10/30 04:35:09;;;;;;;10.10;9.80;;;;;;;-141.02;100.00;38996.72;5094198;28;20244;-62
2023/10/30 04:37:36;;;;;;;10.30;10.00;;;;;;;-141.02;100.00;39017.81;5094380;28;20202;-62
2023/10/30 04:40:04;;;;;;;9.70;9.40;;;;;;;-141.02;100.00;38994.78;5093874;28;20711;-62
2023/10/30 04:42:31;;;;;;;9.50;9.20;;;;;;;-141.02;100.00;38948.78;5094043;28;20197;-62
2023/10/30 04:45:00;;;;;;;9.50;9.20;;;;;;;-141.02;100.00;38960.28;5093644;28;20595;-62
2023/10/30 04:47:27;;;;;;;10.70;10.40;;;;;;;-141.02;100.00;38964.13;5094023;28;20608;-62
2023/10/30 04:49:54;;;;;;;10.20;9.90;;;;;;;-141.02;100.00;39002.47;5093881;28;20222;-62
2023/10/30 04:52:23;;;;;;;9.90;9.60;;;;;;;-141.02;100.00;39052.31;5093939;28;20277;-62
2023/10/30 04:54:50;;;;;;;9.70;9.40;;;;;;;-141.02;100.00;39123.28;5093533;28;20232;-62
2023/10/30 04:57:17;;;;;;;10.77;10.48;;;;;;;-141.02;100.00;39192.31;5093467;28;20664;-63
2023/10/30 04:59:44;;;;;;;10.80;10.50;;;;;;;-141.02;100.00;39199.97;5093413;28;20232;-63
2023/10/30 05:02:12;;;;;;;10.30;10.00;;;;;;;-141.02;100.00;39253.69;5093335;28;20208;-62
2023/10/30 05:04:39;;;;;;;10.00;9.70;;;;;;;-141.02;100.00;39305.44;5093355;28;20257;-63
2023/10/30 05:07:06;;;;;;;10.20;9.90;;;;;;;-141.02;100.00;39359.16;5093298;28;20236;-62
2023/10/30 05:09:33;;;;;;;9.80;9.50;;;;;;;-141.02;100.00;39424.34;5093352;28;20236;-63
2023/10/30 05:12:01;;;;;;;10.00;9.70;;;;;;;-141.02;100.00;39458.88;5093473;28;20664;-63
2023/10/30 05:14:28;;;;;;;9.90;9.60;;;;;;;-141.02;100.00;39487.66;5093128;28;20727;-62
2023/10/30 05:16:55;;;;;;;10.33;10.03;;;;;;;-141.02;100.00;39589.28;5093495;28;20276;-62
2023/10/30 05:19:23;;;;;;;10.60;10.30;;;;;;;-141.02;100.00;39618.06;5092914;28;20257;-62
2023/10/30 05:21:50;;;;;;;9.80;9.50;;;;;;;-141.02;100.00;39635.31;5093405;28;20221;-63
2023/10/30 05:24:17;;;;;;;10.03;9.73;;;;;;;-141.02;100.00;39619.97;5092198;28;20648;-62
2023/10/30 05:26:45;;;;;;;9.27;8.97;;;;;;;-141.02;100.00;39593.13;5093278;28;20233;-62
2023/10/30 05:29:12;;;;;;;9.50;9.20;;;;;;;-141.02;100.00;39593.13;5092908;28;20663;-62
2023/10/30 05:31:39;;;;;;;9.10;8.90;;;;;;;-141.02;100.00;39585.44;5092827;28;20200;-62
2023/10/30 05:34:06;;;;;;;9.00;8.80;;;;;;;-141.02;100.00;39575.88;5093180;28;20225;-63
2023/10/30 05:36:34;;;;;;;8.50;8.30;;;;;;;-141.02;100.00;39577.78;5092712;28;20198;-62
2023/10/30 05:39:01;;;;;;;9.40;9.10;;;;;;;-141.02;100.00;39658.34;5092781;28;20198;-64
2023/10/30 05:41:28;;;;;;;9.30;9.00;;;;;;;-141.02;100.00;39677.50;5092980;28;20202;-62
2023/10/30 05:43:55;;;;;;;9.80;9.50;;;;;;;-141.02;100.00;39735.06;5092546;28;20274;-63
2023/10/30 05:46:22;;;;;;;9.63;9.32;;;;;;;-141.02;100.00;39807.94;5092565;28;20664;-62
2023/10/30 05:48:49;;;;;;;10.32;10.02;;;;;;;-141.02;100.00;39846.28;5092565;28;20574;-62
2023/10/30 05:51:17;;;;;;;11.10;10.80;;;;;;;-141.02;100.00;39815.59;5092900;28;20205;-62
2023/10/30 05:53:47;;;;;;;11.30;11.00;;;;;;;-141.02;100.00;39838.63;5092458;28;20197;-62
2023/10/30 05:56:14;;;;;;;11.00;10.70;;;;;;;-141.02;100.00;39926.84;5092766;28;20204;-62
2023/10/30 05:58:41;;;;;;;11.20;10.90;;;;;;;-141.02;100.00;39942.19;5092737;28;20194;-62
2023/10/30 06:01:07;;;;;;;10.85;10.55;;;;;;;-141.02;100.00;39926.84;5092371;28;20636;-62
2023/10/30 06:03:34;;;;;;;12.20;11.80;;;;;;;-141.02;100.00;39978.66;5092653;28;20285;-62
2023/10/30 06:06:01;;;;;;;12.18;11.77;;;;;;;-141.02;100.00;40007.41;5092618;28;20247;-62
2023/10/30 06:08:28;;;;;;;13.30;12.90;;;;;;;-141.02;100.00;40126.34;5092316;28;20627;-62
2023/10/30 06:10:57;;;;;;;14.30;13.80;;;;;;;-141.02;100.00;40199.22;5092590;28;20252;-62
2023/10/30 06:13:24;;;;;;;13.18;12.77;;;;;;;-141.02;100.00;40233.75;5092226;28;20194;-62
2023/10/30 06:15:54;;;;;;;14.50;14.00;;;;;;;-141.02;100.00;40306.66;5092217;28;20296;-62
2023/10/30 06:18:21;;;;;;;15.35;14.75;;;;;;;-141.02;100.00;40354.63;5092090;28;20266;-63
2023/10/30 06:20:48;;;;;;;15.20;14.70;;;;;;;-141.02;100.00;40373.81;5092174;28;20194;-62
2023/10/30 06:23:15;;;;;;;15.00;14.50;;;;;;;-141.02;100.00;40406.41;5092397;28;20740;-62
2023/10/30 06:25:44;;;;;;;14.90;14.40;;;;;;;-141.02;100.00;40462.03;5092371;28;20237;-62
2023/10/30 06:28:15;;;;;;;15.18;14.68;;;;;;;-141.02;100.00;40467.81;5092478;28;20190;-62
2023/10/30 06:30:42;;;;;;;14.70;14.20;;;;;;;-141.02;100.00;40462.03;5092422;28;20196;-63
2023/10/30 06:33:09;;;;;;;15.52;15.02;;;;;;;-141.02;100.00;40534.94;5091996;28;20284;-63
2023/10/30 06:35:36;;;;;;;14.90;14.40;;;;;;;-141.02;100.00;40521.50;5094601;28;20201;-62
2023/10/30 06:38:03;;;;;;;14.82;14.32;;;;;;;-141.02;100.00;40598.25;5096228;28;20194;-62
2023/10/30 06:40:31;;;;;;;14.80;14.30;;;;;;;-141.02;100.00;40625.13;5096178;28;20285;-63
2023/10/30 06:42:58;;;;;;;15.30;14.80;;;;;;;-141.02;100.00;40648.13;5096180;28;20196;-62
2023/10/30 06:45:26;;;;;;;15.40;14.90;;;;;;;-141.02;100.00;40663.47;5096041;28;20615;-63
2023/10/30 06:47:53;;;;;;;15.40;14.90;;;;;;;-141.02;100.00;40707.59;5095941;28;20748;-62
2023/10/30 06:50:22;;;;;;;15.68;15.07;;;;;;;-141.02;100.00;40763.25;5095942;28;20197;-63
2023/10/30 06:52:49;;;;;;;15.68;15.07;;;;;;;-141.02;100.00;40711.44;5096192;28;20193;-63
2023/10/30 06:55:16;;;;;;;14.90;14.40;;;;;;;-141.02;100.00;40744.06;5096212;28;20194;-62
2023/10/30 06:57:43;;;;;;;15.52;15.02;;;;;;;-141.02;100.00;40759.41;5096172;28;20194;-63
2023/10/30 07:00:11;;;;;;;15.32;14.82;;;;;;;-141.02;100.00;40767.09;5095798;28;20723;-63
2023/10/30 07:02:41;;;;;;;16.42;15.82;;;;;;;-141.02;100.00;40788.19;5096019;28;20285;-62
2023/10/30 07:05:08;;;;;;;16.13;15.52;;;;;;;-141.02;100.00;40851.50;5095859;28;20663;-63
2023/10/30 07:07:35;;;;;;;15.00;14.50;;;;;;;-141.02;100.00;40847.66;5095952;28;20221;-62
2023/10/30 07:10:02;;;;;;;17.27;16.58;;;;;;;-141.02;99.89;40901.38;5095600;28;20193;-62
2023/10/30 07:12:29;;;;;;;16.75;16.05;;;;;;;-141.02;100.00;40937.84;5095885;28;20190;-64
2023/10/30 07:14:56;;;;;;;17.42;16.73;;;;;;;-141.02;97.97;41003.06;5095439;28;20240;-63
2023/10/30 07:17:23;;;;;;;17.33;16.63;;;;;;;-141.02;97.62;41020.34;5095766;28;20243;-63
2023/10/30 07:19:52;;;;;;;17.33;16.60;;;;;;;-141.02;96.40;41083.66;5095710;28;20200;-63
2023/10/30 07:22:19;;;;;;;17.02;16.33;;;;;;;-141.02;96.92;41108.59;5095312;28;20225;-63
2023/10/30 07:24:46;;;;;;;17.55;16.85;;;;;;;-141.02;94.99;41170.00;5095624;28;20225;-63
2023/10/30 07:27:14;;;;;;;17.88;17.17;;;;;;;-141.02;92.96;41196.88;5095309;28;20240;-63
2023/10/30 07:29:41;;;;;;;18.00;17.20;;;;;;;-141.02;92.42;41223.72;5095558;28;20202;-62
2023/10/30 07:32:08;;;;;;;18.23;17.42;;;;;;;-141.02;91.91;41273.63;5095261;28;20229;-63
2023/10/30 07:34:35;;;;;;;19.10;18.23;;;;;;;-141.02;88.37;41285.13;5095453;28;20205;-63
2023/10/30 07:37:04;;;;;;;19.40;18.50;;;;;;;-141.02;85.24;41381.09;5095107;28;20235;-64
2023/10/30 07:39:32;;;;;;;19.55;18.65;;;;;;;-141.02;87.77;41381.09;5095293;28;20225;-63
2023/10/30 07:41:59;;;;;;;19.58;18.67;;;;;;;-141.02;86.71;41419.47;5095326;28;20198;-63
2023/10/30 07:44:26;;;;;;;19.42;18.52;;;;;;;-141.02;86.67;41452.09;5094886;28;20655;-63
2023/10/30 07:46:53;;;;;;;19.60;18.70;;;;;;;-141.02;85.12;41454.00;5094149;28;20708;-63
2023/10/30 07:49:20;;;;;;;19.38;18.48;;;;;;;-141.02;84.03;41509.66;5095239;28;20200;-63
2023/10/30 07:51:47;;;;;;;19.13;18.33;;;;;;;-141.02;83.38;41509.66;5095090;28;20194;-63
2023/10/30 07:54:15;;;;;;;19.30;18.40;;;;;;;-141.02;85.07;41540.34;5094756;28;20730;-62
2023/10/30 07:56:42;;;;;;;18.52;17.65;;;;;;;-141.02;82.54;41557.63;5095013;28;20225;-63
2023/10/30 07:59:09;;;;;;;19.88;18.98;;;;;;;-141.02;80.06;41586.41;5094678;28;20197;-63
2023/10/30 08:01:36;;;;;;;19.65;18.75;;;;;;;-141.02;77.24;41638.22;5094996;28;20198;-63
2023/10/30 08:04:03;;;;;;;18.83;18.02;;;;;;;-141.02;76.33;41665.09;5094794;28;20293;-63
2023/10/30 08:06:30;;;;;;;20.10;19.20;;;;;;;-141.02;76.51;41699.63;5094425;28;20230;-63
2023/10/30 08:08:57;;;;;;;19.88;18.98;;;;;;;-141.02;74.56;41736.09;5094430;28;20609;-63
2023/10/30 08:11:26;;;;;;;20.02;19.13;;;;;;;-141.02;73.55;41749.53;5094407;28;20228;-63
2023/10/30 08:13:53;;;;;;;20.48;19.48;;;;;;;-141.02;74.79;41776.41;5094481;28;20198;-63
2023/10/30 08:16:20;;;;;;;20.25;19.25;;;;;;;-141.02;73.45;41803.28;5095133;28;20722;-63
2023/10/30 08:18:47;;;;;;;20.20;19.20;;;;;;;-141.02;73.84;41814.78;5094123;28;20734;-63
2023/10/30 08:21:14;;;;;;;19.90;19.00;;;;;;;-141.02;72.36;41835.91;5094513;28;20197;-63
2023/10/30 08:23:41;;;;;;;19.95;19.05;;;;;;;-141.02;71.83;41860.84;5094183;28;20575;-63
2023/10/30 08:26:08;;;;;;;19.85;18.95;;;;;;;-141.02;69.63;41899.22;5094875;28;20264;-63
2023/10/30 08:28:37;;;;;;;20.00;19.05;;;;;;;-141.02;70.95;41935.69;5094459;28;20193;-63
2023/10/30 08:31:04;;;;;;;19.10;18.20;;;;;;;-141.02;70.07;41941.44;5094411;28;20247;-63
2023/10/30 08:33:31;;;;;;;18.95;18.05;;;;;;;-141.02;71.35;41995.19;5094278;28;20197;-63
2023/10/30 08:35:58;;;;;;;18.95;18.05;;;;;;;-141.02;70.65;42014.38;5094275;28;20233;-63
2023/10/30 08:38:25;;;;;;;18.88;17.98;;;;;;;-141.02;69.52;42025.91;5094096;28;20589;-63
2023/10/30 08:40:52;;;;;;;20.02;19.02;;;;;;;-141.02;70.04;42045.09;5094182;28;20257;-63
2023/10/30 08:43:19;;;;;;;20.17;19.17;;;;;;;-141.02;69.96;42068.13;5094144;28;20229;-63
2023/10/30 08:45:47;;;;;;;19.88;18.88;;;;;;;-141.02;69.44;42102.66;5093944;28;20275;-63
2023/10/30 08:48:14;;;;;;;19.80;18.80;;;;;;;-141.02;69.65;42098.84;5094018;28;20247;-63
2023/10/30 08:50:42;;;;;;;19.63;18.63;;;;;;;-141.02;68.51;42119.94;5093665;28;20233;-63
2023/10/30 08:53:09;;;;;;;19.83;18.83;;;;;;;-141.02;68.21;42152.56;5093584;28;20198;-63
2023/10/30 08:55:35;;;;;;;19.52;18.52;;;;;;;-141.02;68.16;42160.25;5093892;28;20251;-63
2023/10/30 08:58:03;;;;;;;18.85;17.95;;;;;;;-141.02;68.63;42190.97;5092993;28;20277;-63
2023/10/30 09:00:30;;;;;;;19.35;18.45;;;;;;;-141.02;67.24;42240.88;5093607;28;20194;-63
2023/10/30 09:02:58;;;;;;;19.58;18.58;;;;;;;-141.02;68.13;42217.84;5093748;28;20228;-63
2023/10/30 09:05:25;;;;;;;19.15;18.15;;;;;;;-141.02;68.27;42279.25;5093577;28;20230;-64
2023/10/30 09:07:52;;;;;;;19.35;18.35;;;;;;;-141.02;67.87;42267.75;5093643;28;20194;-63
2023/10/30 09:10:20;;;;;;;19.30;18.30;;;;;;;-141.02;67.49;42298.44;5093581;28;20273;-64
2023/10/30 09:12:47;;;;;;;19.30;18.30;;;;;;;-141.02;68.42;42321.47;5093364;28;20198;-63
2023/10/30 09:15:16;;;;;;;19.25;18.25;;;;;;;-141.02;67.79;42317.66;5093173;28;20288;-63
2023/10/30 09:17:43;;;;;;;19.35;18.35;;;;;;;-141.02;70.57;42348.34;5093271;28;20302;-64
2023/10/30 09:20:12;;;;;;;19.52;18.52;;;;;;;-141.02;68.68;42367.56;5093495;28;20182;-63
2023/10/30 09:22:39;;;;;;;19.48;18.48;;;;;;;-141.02;69.72;42367.56;5093356;28;20194;-63
2023/10/30 09:25:08;;;;;;;19.30;18.30;;;;;;;-141.02;68.51;42419.38;5092866;28;20573;-63
2023/10/30 09:27:34;;;;;;;19.20;18.20;;;;;;;-141.02;67.55;42405.94;5093277;28;20240;-63
2023/10/30 09:30:03;;;;;;;19.23;18.23;;;;;;;-141.02;67.03;42432.81;5093229;28;20247;-63
2023/10/30 09:32:30;;;;;;;19.17;18.17;;;;;;;-141.02;67.52;42425.13;5093162;28;20220;-63
2023/10/30 09:34:59;;;;;;;18.83;17.83;;;;;;;-141.02;68.39;42471.19;5093184;28;20293;-63
2023/10/30 09:37:27;;;;;;;19.80;18.70;;;;;;;-141.02;67.20;42446.25;5093022;28;20204;-64
2023/10/30 09:39:54;;;;;;;18.92;17.92;;;;;;;-141.02;66.68;42517.28;5093039;28;20243;-64
2023/10/30 09:42:22;;;;;;;18.83;17.83;;;;;;;-141.02;64.74;42578.69;5092708;28;20241;-64
2023/10/30 09:44:49;;;;;;;19.00;18.00;;;;;;;-141.02;64.59;42555.66;5092880;28;20638;-64
2023/10/30 09:47:18;;;;;;;18.55;17.55;;;;;;;-141.02;65.67;42532.63;5092490;28;20198;-64
2023/10/30 09:49:48;;;;;;;18.70;17.70;;;;;;;-141.02;65.14;42521.13;5092213;28;20285;-64
2023/10/30 09:52:16;;;;;;;18.65;17.65;;;;;;;-141.02;65.20;42574.88;5092467;28;20234;-64
2023/10/30 09:54:46;;;;;;;18.60;17.60;;;;;;;-141.02;64.18;42594.06;5092560;28;20226;-64
2023/10/30 09:57:14;;;;;;;18.52;17.52;;;;;;;-141.02;65.14;42613.25;5092409;28;20610;-64
2023/10/30 09:59:42;;;;;;;18.10;17.20;;;;;;;-141.02;64.68;42609.41;5092679;28;20276;-64
2023/10/30 10:02:10;;;;;;;18.45;17.55;;;;;;;-141.02;64.04;42622.84;5092403;28;20298;-63
2023/10/30 10:04:40;;;;;;;18.50;17.50;;;;;;;-141.02;62.75;42655.47;5092320;28;20197;-64
2023/10/30 10:07:07;;;;;;;18.45;17.45;;;;;;;-141.02;63.67;42647.81;5092189;28;20262;-64
2023/10/30 10:09:34;;;;;;;18.45;17.45;;;;;;;-141.02;62.65;42670.84;5091991;28;20436;-65
2023/10/30 10:12:20;;;;;;;18.85;17.85;;;;;;;-141.02;62.40;42718.84;5092124;28;20233;-64
2023/10/30 10:14:47;;;;;;;18.45;17.45;;;;;;;-141.02;61.69;42720.75;5092613;28;20652;-64
2023/10/30 10:17:14;;;;;;;18.60;17.60;;;;;;;-141.02;62.20;42690.03;5092417;28;20225;-64
2023/10/30 10:19:46;;;;;;;18.75;17.75;;;;;;;-141.02;62.65;42736.13;5092033;28;20290;-64
2023/10/30 10:22:27;;;;;;;18.45;17.45;;;;;;;-141.02;61.38;42770.66;5092449;28;20213;-64
2023/10/30 10:24:55;;;;;;;18.80;17.80;;;;;;;-141.02;61.23;42797.53;5092380;28;20204;-64
2023/10/30 10:27:24;;;;;;;18.70;17.70;;;;;;;-141.02;60.93;42830.19;5091954;28;20637;-64
2023/10/30 10:29:55;;;;;;;18.42;17.42;;;;;;;-141.02;60.39;42910.81;5091986;28;20737;-64
2023/10/30 10:32:25;;;;;;;18.25;17.25;;;;;;;-141.02;58.49;42857.06;5092288;28;20198;-64
2023/10/30 10:34:52;;;;;;;18.50;17.50;;;;;;;-141.02;58.61;42824.41;5091995;28;20186;-64
2023/10/30 10:37:20;;;;;;;18.30;17.30;;;;;;;-141.02;60.87;42820.56;5092219;28;20224;-64
2023/10/30 10:39:48;;;;;;;18.30;17.30;;;;;;;-141.02;61.03;42876.25;5091924;28;20193;-64
2023/10/30 10:42:19;;;;;;;18.55;17.55;;;;;;;-141.02;59.78;42893.53;5091920;28;20236;-64
2023/10/30 10:44:49;;;;;;;18.27;17.27;;;;;;;-141.02;60.18;42851.28;5091912;28;20652;-64
2023/10/30 10:47:16;;;;;;;18.45;17.45;;;;;;;-141.02;58.73;42928.09;5092023;28;20707;-64
2023/10/30 10:49:43;;;;;;;18.52;17.52;;;;;;;-141.02;59.19;42933.84;5091813;28;20675;-64
2023/10/30 10:52:12;;;;;;;18.38;17.38;;;;;;;-141.02;58.81;42935.75;5092123;28;20228;-64
2023/10/30 10:54:47;;;;;;;18.42;17.42;;;;;;;-141.02;58.25;42978.00;5092075;28;20193;-64
2023/10/30 10:57:18;;;;;;;18.83;17.85;;;;;;;-141.02;59.02;42978.00;5091985;28;20186;-64
2023/10/30 10:59:48;;;;;;;18.33;17.33;;;;;;;-141.02;58.89;43024.06;5091578;28;20201;-64